createdAt,value
2019-05-05T00:02:26.669Z,101164.20
2019-05-05T00:05:17.905Z,101161.88
2019-05-05T00:07:49.342Z,101162.12
2019-05-05T00:10:51.516Z,101170.16
2019-05-05T00:13:39.389Z,101177.32
2019-05-05T00:16:21.955Z,101171.10
2019-05-05T00:18:54.297Z,101174.33
2019-05-05T00:21:25.757Z,101172.58
2019-05-05T00:23:57.037Z,101176.34
2019-05-05T00:26:28.280Z,101177.37
2019-05-05T00:28:59.538Z,101176.69
2019-05-05T00:31:30.790Z,101176.64
2019-05-05T00:34:02.021Z,101180.05
2019-05-05T00:36:35.246Z,101177.05
2019-05-05T00:39:09.583Z,101181.63
2019-05-05T00:41:40.805Z,101183.17
2019-05-05T00:44:12.090Z,101189.20
2019-05-05T00:47:01.024Z,101188.97
2019-05-05T00:49:44.099Z,101185.48
2019-05-05T00:52:06.660Z,101189.64
2019-05-05T00:54:37.811Z,101189.19
2019-05-05T00:57:09.076Z,101189.95
2019-05-05T00:59:40.262Z,101194.57
2019-05-05T01:02:19.145Z,101189.05
2019-05-05T01:05:04.524Z,101183.92
2019-05-05T01:07:35.960Z,101184.41
2019-05-05T01:10:08.273Z,101187.97
2019-05-05T01:12:39.617Z,101183.84
2019-05-05T01:15:11.429Z,101184.98
2019-05-05T01:17:44.881Z,101190.89
2019-05-05T01:20:16.556Z,101193.97
2019-05-05T01:22:47.737Z,101192.11
2019-05-05T01:25:19.178Z,101195.09
2019-05-05T01:27:50.486Z,101188.45
2019-05-05T01:30:28.969Z,101191.84
2019-05-05T01:33:10.585Z,101196.23
2019-05-05T01:35:41.812Z,101196.41
2019-05-05T01:38:19.417Z,101192.11
2019-05-05T01:41:12.312Z,101196.98
2019-05-05T01:43:45.202Z,101204.95
2019-05-05T01:46:16.601Z,101201.45
2019-05-05T01:48:47.835Z,101204.27
2019-05-05T01:51:18.981Z,101208.37
2019-05-05T01:53:50.212Z,101210.69
2019-05-05T01:56:21.632Z,101206.44
2019-05-05T01:58:54.766Z,101212.78
2019-05-05T02:01:26.149Z,101211.34
2019-05-05T02:03:57.400Z,101217.22
2019-05-05T02:06:28.669Z,101212.81
2019-05-05T02:08:59.940Z,101207.25
2019-05-05T02:11:31.149Z,101206.05
2019-05-05T02:14:02.496Z,101204.72
2019-05-05T02:16:34.696Z,101202.81
2019-05-05T02:19:06.212Z,101202.09
2019-05-05T02:21:37.529Z,101204.35
2019-05-05T02:24:08.981Z,101205.80
2019-05-05T02:26:40.210Z,101199.03
2019-05-05T02:29:36.409Z,101201.23
2019-05-05T02:32:35.905Z,101203.30
2019-05-05T02:35:08.639Z,101201.99
2019-05-05T02:37:39.896Z,101199.26
2019-05-05T02:40:15.663Z,101199.89
2019-05-05T02:42:48.546Z,101206.76
2019-05-05T02:46:08.874Z,101206.63
2019-05-05T02:48:40.947Z,101215.57
2019-05-05T02:51:15.077Z,101206.91
2019-05-05T02:53:53.641Z,101205.92
2019-05-05T02:56:34.186Z,101209.48
2019-05-05T02:59:11.132Z,101210.88
2019-05-05T03:01:59.510Z,101208.30
2019-05-05T03:04:31.287Z,101208.51
2019-05-05T03:07:06.785Z,101206.77
2019-05-05T03:09:39.357Z,101209.82
2019-05-05T03:12:12.319Z,101204.04
2019-05-05T03:14:47.016Z,101200.22
2019-05-05T03:17:19.859Z,101211.45
2019-05-05T03:19:53.544Z,101209.88
2019-05-05T03:22:26.972Z,101209.66
2019-05-05T03:24:58.819Z,101210.80
2019-05-05T03:27:30.566Z,101209.72
2019-05-05T03:30:05.113Z,101209.44
2019-05-05T03:32:36.565Z,101204.62
2019-05-05T03:35:08.017Z,101218.28
2019-05-05T03:37:39.437Z,101214.88
2019-05-05T03:40:18.451Z,101219.18
2019-05-05T03:43:11.929Z,101211.17
2019-05-05T03:45:53.961Z,101215.79
2019-05-05T03:48:25.530Z,101215.00
2019-05-05T03:50:57.220Z,101215.66
2019-05-05T03:53:29.632Z,101216.98
2019-05-05T03:56:01.302Z,101218.92
2019-05-05T03:58:34.430Z,101222.25
2019-05-05T04:01:40.171Z,101229.38
2019-05-05T04:04:25.390Z,101235.56
2019-05-05T04:06:57.383Z,101232.02
2019-05-05T04:09:28.994Z,101237.23
2019-05-05T04:12:00.269Z,101237.50
2019-05-05T04:14:31.475Z,101239.27
2019-05-05T04:17:36.740Z,101238.88
2019-05-05T04:20:45.640Z,101243.47
2019-05-05T04:23:16.905Z,101241.41
2019-05-05T04:25:48.135Z,101242.66
2019-05-05T04:28:19.402Z,101249.34
2019-05-05T04:30:50.643Z,101249.59
2019-05-05T04:33:23.655Z,101251.20
2019-05-05T04:35:54.998Z,101257.78
2019-05-05T04:38:26.170Z,101254.50
2019-05-05T04:40:57.674Z,101261.52
2019-05-05T04:43:28.932Z,101256.41
2019-05-05T04:46:00.179Z,101261.27
2019-05-05T04:48:38.552Z,101258.78
2019-05-05T04:51:24.474Z,101265.80
2019-05-05T04:54:16.635Z,101269.55
2019-05-05T04:56:47.921Z,101267.56
2019-05-05T04:59:19.176Z,101262.34
2019-05-05T05:01:54.636Z,101265.27
2019-05-05T05:04:50.329Z,101265.41
2019-05-05T05:07:23.607Z,101279.92
2019-05-05T05:09:54.621Z,101277.67
2019-05-05T05:12:25.874Z,101273.80
2019-05-05T05:14:57.117Z,101279.25
2019-05-05T05:17:35.699Z,101284.17
2019-05-05T05:20:07.722Z,101289.13
2019-05-05T05:22:39.063Z,101293.84
2019-05-05T05:25:10.544Z,101299.46
2019-05-05T05:27:41.823Z,101298.14
2019-05-05T05:30:13.736Z,101309.30
2019-05-05T05:32:45.288Z,101312.07
2019-05-05T05:35:16.685Z,101317.00
2019-05-05T05:37:47.950Z,101322.28
2019-05-05T05:40:24.987Z,101326.25
2019-05-05T05:42:57.407Z,101322.98
2019-05-05T05:45:45.136Z,101332.72
2019-05-05T05:48:36.213Z,101335.84
2019-05-05T05:51:10.007Z,101340.17
2019-05-05T05:56:17.306Z,101331.07
2019-05-05T05:58:48.487Z,101340.32
2019-05-05T06:01:19.699Z,101345.61
2019-05-05T06:03:50.894Z,101350.67
2019-05-05T06:06:24.000Z,101351.05
2019-05-05T06:08:54.970Z,101352.25
2019-05-05T06:11:26.098Z,101358.52
2019-05-05T06:13:59.543Z,101361.38
2019-05-05T06:16:35.051Z,101364.00
2019-05-05T06:22:15.176Z,101373.14
2019-05-05T06:24:44.718Z,101376.88
2019-05-05T06:27:15.992Z,101382.73
2019-05-05T06:29:47.288Z,101379.87
2019-05-05T06:32:18.504Z,101382.97
2019-05-05T06:34:49.755Z,101387.37
2019-05-05T06:37:21.061Z,101376.22
2019-05-05T06:39:54.450Z,101386.16
2019-05-05T06:42:50.538Z,101381.19
2019-05-05T06:45:34.182Z,101377.70
2019-05-05T06:48:04.971Z,101382.14
2019-05-05T06:50:36.201Z,101377.12
2019-05-05T06:53:07.395Z,101387.72
2019-05-05T06:55:38.556Z,101389.34
2019-05-05T06:58:09.799Z,101393.38
2019-05-05T07:00:41.039Z,101391.38
2019-05-05T07:03:13.916Z,101399.23
2019-05-05T07:05:47.396Z,101401.09
2019-05-05T07:08:18.784Z,101396.10
2019-05-05T07:10:49.992Z,101395.73
2019-05-05T07:13:21.141Z,101392.95
2019-05-05T07:15:54.270Z,101388.38
2019-05-05T07:18:25.412Z,101388.20
2019-05-05T07:20:56.714Z,101385.20
2019-05-05T07:23:27.945Z,101390.83
2019-05-05T07:25:59.161Z,101392.92
2019-05-05T07:28:30.399Z,101388.59
2019-05-05T07:31:01.696Z,101390.64
2019-05-05T07:33:34.640Z,101389.46
2019-05-05T07:36:24.955Z,101392.91
2019-05-05T07:38:56.472Z,101387.64
2019-05-05T07:41:27.724Z,101389.41
2019-05-05T07:43:59.022Z,101377.09
2019-05-05T07:46:30.247Z,101379.52
2019-05-05T07:49:03.721Z,101385.80
2019-05-05T07:51:34.372Z,101385.33
2019-05-05T07:54:05.692Z,101395.06
2019-05-05T07:56:37.047Z,101391.88
2019-05-05T07:59:08.298Z,101393.53
2019-05-05T08:01:39.665Z,101398.20
2019-05-05T08:04:10.863Z,101394.11
2019-05-05T08:06:44.377Z,101388.53
2019-05-05T08:09:15.065Z,101389.05
2019-05-05T08:11:46.327Z,101377.42
2019-05-05T08:14:17.621Z,101389.79
2019-05-05T08:17:03.776Z,101377.43
2019-05-05T08:19:43.874Z,101388.41
2019-05-05T08:22:15.228Z,101392.51
2019-05-05T08:25:05.206Z,101401.78
2019-05-05T08:28:05.476Z,101393.16
2019-05-05T08:30:45.109Z,101389.59
2019-05-05T08:33:16.261Z,101393.61
2019-05-05T08:35:47.420Z,101396.06
2019-05-05T08:38:18.776Z,101406.41
2019-05-05T08:40:50.191Z,101401.09
2019-05-05T08:43:21.519Z,101406.22
2019-05-05T08:45:55.411Z,101407.39
2019-05-05T08:48:26.770Z,101406.14
2019-05-05T08:50:58.027Z,101405.88
2019-05-05T08:53:41.526Z,101399.20
2019-05-05T08:56:04.048Z,101381.24
2019-05-05T08:58:35.121Z,101383.16
2019-05-05T09:01:06.335Z,101379.36
2019-05-05T09:03:37.580Z,101376.11
2019-05-05T09:06:08.890Z,101392.28
2019-05-05T09:08:40.161Z,101388.20
2019-05-05T09:11:13.824Z,101389.53
2019-05-05T09:13:44.774Z,101396.71
2019-05-05T09:16:16.240Z,101406.20
2019-05-05T09:19:15.565Z,101409.16
2019-05-05T09:21:46.869Z,101414.80
2019-05-05T09:24:34.077Z,101417.78
2019-05-05T09:27:19.756Z,101432.39
2019-05-05T09:29:51.083Z,101428.28
2019-05-05T09:32:24.288Z,101426.30
2019-05-05T09:34:55.515Z,101425.01
2019-05-05T09:37:27.753Z,101426.43
2019-05-05T09:39:59.222Z,101419.89
2019-05-05T09:42:30.467Z,101428.49
2019-05-05T09:45:01.681Z,101426.03
2019-05-05T09:47:34.367Z,101429.72
2019-05-05T09:50:06.405Z,101433.72
2019-05-05T09:52:37.716Z,101438.52
2019-05-05T09:55:09.330Z,101441.13
2019-05-05T09:57:40.572Z,101442.78
2019-05-05T10:00:14.228Z,101446.34
2019-05-05T10:02:45.510Z,101446.48
2019-05-05T10:05:17.290Z,101442.21
2019-05-05T10:07:48.521Z,101444.88
2019-05-05T10:10:24.327Z,101442.89
2019-05-05T10:12:55.739Z,101448.16
2019-05-05T10:15:27.018Z,101447.05
2019-05-05T10:17:58.229Z,101451.36
2019-05-05T10:20:29.522Z,101448.26
2019-05-05T10:23:00.759Z,101444.05
2019-05-05T10:25:35.877Z,101443.03
2019-05-05T10:28:07.005Z,101441.52
2019-05-05T10:30:38.259Z,101436.80
2019-05-05T10:33:09.400Z,101432.12
2019-05-05T10:35:40.669Z,101445.64
2019-05-05T10:38:14.095Z,101436.61
2019-05-05T10:40:48.167Z,101432.40
2019-05-05T10:43:17.876Z,101433.13
2019-05-05T10:45:49.132Z,101439.67
2019-05-05T10:48:20.305Z,101437.80
2019-05-05T10:50:53.611Z,101434.52
2019-05-05T10:53:24.559Z,101435.08
2019-05-05T10:55:55.841Z,101431.02
2019-05-05T10:58:27.128Z,101424.78
2019-05-05T11:01:04.276Z,101413.72
2019-05-05T11:03:35.778Z,101418.16
2019-05-05T11:06:07.267Z,101419.19
2019-05-05T11:08:38.622Z,101417.33
2019-05-05T11:11:09.881Z,101415.89
2019-05-05T11:13:44.984Z,101412.05
2019-05-05T11:16:14.563Z,101408.88
2019-05-05T11:18:46.016Z,101407.19
2019-05-05T11:21:17.482Z,101410.16
2019-05-05T11:23:48.717Z,101416.91
2019-05-05T11:26:20.009Z,101434.43
2019-05-05T11:28:51.331Z,101454.73
2019-05-05T11:31:24.051Z,101455.58
2019-05-05T11:34:10.462Z,101460.74
2019-05-05T11:36:54.574Z,101463.61
2019-05-05T11:39:25.859Z,101464.88
2019-05-05T11:45:18.303Z,101458.80
2019-05-05T11:47:49.634Z,101453.22
2019-05-05T11:50:20.968Z,101454.50
2019-05-05T11:52:54.003Z,101457.66
2019-05-05T11:55:25.184Z,101457.66
2019-05-05T11:57:57.714Z,101467.39
2019-05-05T12:00:30.981Z,101465.29
2019-05-05T12:03:03.850Z,101458.36
2019-05-05T12:05:35.278Z,101457.58
2019-05-05T12:08:09.590Z,101451.89
2019-05-05T12:10:48.851Z,101446.39
2019-05-05T12:13:20.108Z,101447.99
2019-05-05T12:15:57.854Z,101452.12
2019-05-05T12:18:29.433Z,101450.09
2019-05-05T12:21:00.996Z,101451.02
2019-05-05T12:23:33.925Z,101445.58
2019-05-05T12:26:30.071Z,101454.92
2019-05-05T12:29:25.918Z,101455.40
2019-05-05T12:31:57.228Z,101453.17
2019-05-05T12:34:28.521Z,101456.30
2019-05-05T12:36:59.739Z,101457.40
2019-05-05T12:39:30.998Z,101457.44
2019-05-05T12:42:04.600Z,101454.14
2019-05-05T12:44:40.342Z,101459.78
2019-05-05T12:47:37.624Z,101453.58
2019-05-05T12:50:09.071Z,101450.33
2019-05-05T12:52:40.313Z,101458.70
2019-05-05T12:55:14.128Z,101457.90
2019-05-05T12:57:44.820Z,101461.84
2019-05-05T13:00:18.900Z,101460.76
2019-05-05T13:02:50.144Z,101459.75
2019-05-05T13:05:23.591Z,101460.19
2019-05-05T13:07:54.302Z,101464.03
2019-05-05T13:10:25.834Z,101462.36
2019-05-05T13:12:57.048Z,101458.76
2019-05-05T13:15:28.321Z,101463.58
2019-05-05T13:17:59.575Z,101461.52
2019-05-05T13:20:49.619Z,101462.88
2019-05-05T13:23:49.526Z,101454.87
2019-05-05T13:26:27.456Z,101457.23
2019-05-05T13:28:58.703Z,101455.38
2019-05-05T13:31:29.960Z,101454.22
2019-05-05T13:34:01.217Z,101449.53
2019-05-05T13:36:33.439Z,101454.39
2019-05-05T13:39:07.455Z,101445.91
2019-05-05T13:41:38.684Z,101444.17
2019-05-05T13:44:15.574Z,101441.20
2019-05-05T13:46:46.779Z,101434.55
2019-05-05T13:49:30.237Z,101433.28
2019-05-05T13:52:04.687Z,101434.27
2019-05-05T13:54:36.157Z,101435.19
2019-05-05T13:57:07.502Z,101418.06
2019-05-05T13:59:38.755Z,101414.94
2019-05-05T14:02:10.000Z,101414.21
2019-05-05T14:04:41.250Z,101419.53
2019-05-05T14:07:12.500Z,101419.58
2019-05-05T14:09:44.191Z,101432.61
2019-05-05T14:12:15.717Z,101435.32
2019-05-05T14:14:46.990Z,101442.92
2019-05-05T14:17:18.289Z,101446.75
2019-05-05T14:20:01.614Z,101457.17
2019-05-05T14:22:24.273Z,101446.44
2019-05-05T14:25:04.507Z,101438.16
2019-05-05T14:27:35.794Z,101439.89
2019-05-05T14:30:23.636Z,101444.75
2019-05-05T14:32:55.049Z,101436.05
2019-05-05T14:35:38.779Z,101435.62
2019-05-05T14:38:23.530Z,101436.87
2019-05-05T14:40:55.030Z,101441.42
2019-05-05T14:43:26.304Z,101438.41
2019-05-05T14:45:57.623Z,101439.41
2019-05-05T14:48:28.926Z,101446.86
2019-05-05T14:51:00.203Z,101454.73
2019-05-05T14:53:31.521Z,101455.88
2019-05-05T14:56:04.625Z,101454.28
2019-05-05T14:58:35.692Z,101457.03
2019-05-05T15:01:06.879Z,101469.07
2019-05-05T15:03:38.136Z,101461.34
2019-05-05T15:06:17.632Z,101470.44
2019-05-05T15:09:03.927Z,101458.34
2019-05-05T15:11:53.856Z,101466.83
2019-05-05T15:14:25.214Z,101462.93
2019-05-05T15:16:56.467Z,101464.63
2019-05-05T15:19:27.649Z,101469.41
2019-05-05T15:21:58.884Z,101470.25
2019-05-05T15:24:30.120Z,101462.39
2019-05-05T15:27:01.407Z,101459.80
2019-05-05T15:29:34.426Z,101470.59
2019-05-05T15:32:05.529Z,101469.45
2019-05-05T15:34:36.704Z,101475.50
2019-05-05T15:37:08.045Z,101474.88
2019-05-05T15:39:39.280Z,101465.98
2019-05-05T15:42:10.564Z,101467.59
2019-05-05T15:44:43.764Z,101464.77
2019-05-05T15:47:14.610Z,101463.22
2019-05-05T15:49:45.840Z,101461.41
2019-05-05T15:52:20.015Z,101461.81
2019-05-05T15:54:49.979Z,101455.48
2019-05-05T15:57:21.253Z,101457.17
2019-05-05T15:59:54.149Z,101453.39
2019-05-05T16:02:25.271Z,101451.39
2019-05-05T16:05:02.074Z,101457.14
2019-05-05T16:07:33.421Z,101450.92
2019-05-05T16:10:04.864Z,101444.97
2019-05-05T16:12:40.085Z,101448.43
2019-05-05T16:15:31.438Z,101447.09
2019-05-05T16:18:14.416Z,101442.12
2019-05-05T16:20:50.071Z,101450.06
2019-05-05T16:23:27.306Z,101450.17
2019-05-05T16:25:58.617Z,101456.10
2019-05-05T16:28:29.837Z,101450.72
2019-05-05T16:31:01.125Z,101453.83
2019-05-05T16:33:33.505Z,101460.79
2019-05-05T16:36:06.293Z,101460.30
2019-05-05T16:38:37.809Z,101457.48
2019-05-05T16:41:09.100Z,101454.75
2019-05-05T16:43:40.371Z,101453.65
2019-05-05T16:46:11.633Z,101463.13
2019-05-05T16:48:43.915Z,101467.44
2019-05-05T16:51:17.369Z,101458.28
2019-05-05T16:53:48.595Z,101460.95
2019-05-05T16:56:19.712Z,101469.00
2019-05-05T16:58:51.001Z,101473.72
2019-05-05T17:01:22.192Z,101470.75
2019-05-05T17:03:54.241Z,101471.29
2019-05-05T17:06:25.562Z,101475.52
2019-05-05T17:08:56.822Z,101470.26
2019-05-05T17:11:28.092Z,101468.79
2019-05-05T17:14:18.036Z,101468.81
2019-05-05T17:17:01.417Z,101468.73
2019-05-05T17:19:51.339Z,101469.22
2019-05-05T17:22:28.484Z,101473.34
2019-05-05T17:25:01.611Z,101470.77
2019-05-05T17:27:47.048Z,101475.52
2019-05-05T17:30:06.070Z,101481.37
2019-05-05T17:32:37.310Z,101477.87
2019-05-05T17:35:08.716Z,101483.74
2019-05-05T17:37:39.920Z,101485.35
2019-05-05T17:40:33.676Z,101479.86
2019-05-05T17:43:29.533Z,101480.23
2019-05-05T17:46:10.531Z,101474.78
2019-05-05T17:49:00.497Z,101477.98
2019-05-05T17:51:56.593Z,101479.78
2019-05-05T17:54:33.747Z,101481.70
2019-05-05T17:57:04.485Z,101482.42
2019-05-05T17:59:35.742Z,101474.50
2019-05-05T18:02:07.143Z,101478.94
2019-05-05T18:04:38.828Z,101480.83
2019-05-05T18:07:27.452Z,101480.89
2019-05-05T18:10:21.054Z,101479.66
2019-05-05T18:13:10.301Z,101488.75
2019-05-05T18:15:54.421Z,101479.59
2019-05-05T18:18:25.803Z,101488.16
2019-05-05T18:20:57.026Z,101479.91
2019-05-05T18:23:28.219Z,101484.09
2019-05-05T18:25:59.579Z,101482.24
2019-05-05T18:28:30.869Z,101492.79
2019-05-05T18:31:02.125Z,101486.02
2019-05-05T18:33:33.970Z,101489.66
2019-05-05T18:36:05.208Z,101491.12
2019-05-05T18:38:36.363Z,101498.11
2019-05-05T18:41:16.181Z,101485.38
2019-05-05T18:43:52.725Z,101494.52
2019-05-05T18:46:24.437Z,101491.86
2019-05-05T18:48:55.775Z,101499.66
2019-05-05T18:51:27.063Z,101499.23
2019-05-05T18:53:58.211Z,101504.55
2019-05-05T18:56:29.481Z,101505.44
2019-05-05T18:59:00.786Z,101512.64
2019-05-05T19:01:48.716Z,101511.30
2019-05-05T19:04:35.837Z,101510.86
2019-05-05T19:07:28.720Z,101522.03
2019-05-05T19:09:59.998Z,101515.47
2019-05-05T19:12:31.325Z,101522.08
2019-05-05T19:15:04.311Z,101519.42
2019-05-05T19:17:35.481Z,101521.69
2019-05-05T19:20:14.655Z,101528.52
2019-05-05T19:22:46.328Z,101535.80
2019-05-05T19:25:17.607Z,101536.50
2019-05-05T19:27:49.001Z,101534.14
2019-05-05T19:30:20.370Z,101531.06
2019-05-05T19:32:51.542Z,101536.19
2019-05-05T19:35:23.527Z,101542.92
2019-05-05T19:37:55.530Z,101538.97
2019-05-05T19:40:26.748Z,101539.72
2019-05-05T19:42:58.010Z,101543.39
2019-05-05T19:45:29.252Z,101551.85
2019-05-05T19:48:00.510Z,101546.28
2019-05-05T19:50:44.557Z,101554.27
2019-05-05T19:53:26.067Z,101550.33
2019-05-05T19:55:58.308Z,101552.01
2019-05-05T19:58:29.552Z,101551.89
2019-05-05T20:01:04.929Z,101555.74
2019-05-05T20:03:36.421Z,101552.89
2019-05-05T20:06:07.903Z,101548.81
2019-05-05T20:08:41.330Z,101553.39
2019-05-05T20:11:14.179Z,101555.91
2019-05-05T20:13:45.007Z,101555.20
2019-05-05T20:16:44.214Z,101558.69
2019-05-05T20:19:15.485Z,101559.87
2019-05-05T20:21:46.699Z,101561.79
2019-05-05T20:24:17.987Z,101563.47
2019-05-05T20:26:49.224Z,101566.97
2019-05-05T20:29:20.421Z,101563.59
2019-05-05T20:31:51.643Z,101571.18
2019-05-05T20:34:50.684Z,101569.63
2019-05-05T20:37:24.898Z,101573.34
2019-05-05T20:39:56.887Z,101569.83
2019-05-05T20:42:28.119Z,101575.34
2019-05-05T20:44:59.317Z,101582.61
2019-05-05T20:47:30.562Z,101574.80
2019-05-05T20:50:01.789Z,101581.58
2019-05-05T20:52:34.567Z,101581.47
2019-05-05T20:55:06.473Z,101579.80
2019-05-05T20:57:37.714Z,101582.77
2019-05-05T21:00:11.355Z,101585.01
2019-05-05T21:02:43.593Z,101582.36
2019-05-05T21:05:14.997Z,101583.08
2019-05-05T21:07:46.290Z,101582.12
2019-05-05T21:10:17.927Z,101583.73
2019-05-05T21:12:49.219Z,101582.12
2019-05-05T21:15:20.318Z,101579.72
2019-05-05T21:17:53.931Z,101587.88
2019-05-05T21:20:24.449Z,101594.02
2019-05-05T21:23:04.191Z,101587.88
2019-05-05T21:25:37.613Z,101593.42
2019-05-05T21:28:08.838Z,101591.94
2019-05-05T21:30:41.646Z,101590.84
2019-05-05T21:33:13.042Z,101589.95
2019-05-05T21:35:44.261Z,101592.09
2019-05-05T21:38:15.435Z,101594.05
2019-05-05T21:40:46.639Z,101592.80
2019-05-05T21:43:17.929Z,101598.00
2019-05-05T21:45:49.180Z,101595.06
2019-05-05T21:48:20.408Z,101591.47
2019-05-05T21:50:57.730Z,101591.50
2019-05-05T21:53:46.710Z,101594.51
2019-05-05T21:56:46.458Z,101591.44
2019-05-05T21:59:17.669Z,101594.58
2019-05-05T22:01:49.974Z,101596.41
2019-05-05T22:04:21.376Z,101590.75
2019-05-05T22:06:54.078Z,101590.20
2019-05-05T22:09:25.329Z,101590.06
2019-05-05T22:11:56.703Z,101590.98
2019-05-05T22:14:27.914Z,101589.66
2019-05-05T22:16:59.166Z,101592.34
2019-05-05T22:19:32.702Z,101594.66
2019-05-05T22:22:07.392Z,101592.70
2019-05-05T22:24:38.532Z,101593.34
2019-05-05T22:27:09.759Z,101590.33
2019-05-05T22:29:40.892Z,101596.50
2019-05-05T22:32:14.016Z,101594.19
2019-05-05T22:34:45.075Z,101589.84
2019-05-05T22:37:16.287Z,101584.06
2019-05-05T22:39:47.486Z,101583.48
2019-05-05T22:42:18.654Z,101586.70
2019-05-05T22:44:49.860Z,101582.25
2019-05-05T22:47:21.126Z,101582.52
2019-05-05T22:49:53.922Z,101584.34
2019-05-05T22:52:25.575Z,101586.48
2019-05-05T22:54:56.987Z,101589.39
2019-05-05T22:57:28.248Z,101587.54
2019-05-05T22:59:59.486Z,101578.91
2019-05-05T23:02:33.923Z,101582.50
2019-05-05T23:05:28.007Z,101585.92
2019-05-05T23:07:59.190Z,101582.75
2019-05-05T23:10:30.421Z,101578.03
2019-05-05T23:13:01.593Z,101575.98
2019-05-05T23:15:34.395Z,101576.19
2019-05-05T23:18:12.329Z,101577.45
2019-05-05T23:21:02.436Z,101579.70
2019-05-05T23:23:46.272Z,101584.14
2019-05-05T23:26:19.280Z,101580.19
2019-05-05T23:28:50.509Z,101578.02
2019-05-05T23:31:23.976Z,101575.33
2019-05-05T23:33:54.938Z,101575.89
2019-05-05T23:36:26.166Z,101573.58
2019-05-05T23:38:57.377Z,101575.45
2019-05-05T23:41:28.608Z,101578.84
2019-05-05T23:44:01.137Z,101575.86
2019-05-05T23:46:32.200Z,101576.41
2019-05-05T23:49:04.273Z,101568.46
2019-05-05T23:51:35.847Z,101568.51
2019-05-05T23:54:07.393Z,101565.97
2019-05-05T23:56:38.558Z,101566.59
2019-05-05T23:59:09.773Z,101568.45
